sensor_id;sensor_type;location;lat;lon;timestamp;temperature;humidity
75164;HTU21D;63746;45.402;37.922;2023-01-10T06:15:08;-6.11;70.36
75164;HTU21D;63746;45.402;37.922;2023-01-10T06:17:34;-6.03;70.69
75164;HTU21D;63746;45.402;37.922;2023-01-10T06:20:00;-5.92;70.93
75164;HTU21D;63746;45.402;37.922;2023-01-10T06:22:26;-5.82;70.43
75164;HTU21D;63746;45.402;37.922;2023-01-10T06:24:53;-5.72;70.84
75164;HTU21D;63746;45.402;37.922;2023-01-10T06:27:20;-5.61;71.03
75164;HTU21D;63746;45.402;37.922;2023-01-10T06:29:46;-5.50;70.19
75164;HTU21D;63746;45.402;37.922;2023-01-10T06:32:12;-5.41;69.68
75164;HTU21D;63746;45.402;37.922;2023-01-10T06:34:38;-5.34;69.74
75164;HTU21D;63746;45.402;37.922;2023-01-10T06:37:04;-5.27;70.40
75164;HTU21D;63746;45.402;37.922;2023-01-10T06:39:30;-5.18;70.53
75164;HTU21D;63746;45.402;37.922;2023-01-10T06:41:56;-5.11;70.41
75164;HTU21D;63746;45.402;37.922;2023-01-10T06:44:22;-5.04;68.75
75164;HTU21D;63746;45.402;37.922;2023-01-10T06:46:47;-4.98;69.10
75164;HTU21D;63746;45.402;37.922;2023-01-10T06:49:13;-4.90;69.29
75164;HTU21D;63746;45.402;37.922;2023-01-10T06:51:39;-4.83;69.23
75164;HTU21D;63746;45.402;37.922;2023-01-10T06:54:05;-4.74;69.03
75164;HTU21D;63746;45.402;37.922;2023-01-10T06:56:31;-4.68;69.73
75164;HTU21D;63746;45.402;37.922;2023-01-10T06:58:57;-4.59;68.40
75164;HTU21D;63746;45.402;37.922;2023-01-10T07:01:23;-4.52;69.07
75164;HTU21D;63746;45.402;37.922;2023-01-10T07:03:49;-4.44;69.20
75164;HTU21D;63746;45.402;37.922;2023-01-10T07:06:15;-4.40;66.71
75164;HTU21D;63746;45.402;37.922;2023-01-10T07:08:43;-4.37;65.61
75164;HTU21D;63746;45.402;37.922;2023-01-10T07:11:11;-4.34;65.92
75164;HTU21D;63746;45.402;37.922;2023-01-10T07:13:38;-4.29;66.99
75164;HTU21D;63746;45.402;37.922;2023-01-10T07:18:33;-4.19;66.65
75164;HTU21D;63746;45.402;37.922;2023-01-10T07:20:59;-4.11;66.07
75164;HTU21D;63746;45.402;37.922;2023-01-10T07:23:25;-4.06;67.43
75164;HTU21D;63746;45.402;37.922;2023-01-10T07:25:51;-3.97;67.21
75164;HTU21D;63746;45.402;37.922;2023-01-10T07:28:17;-3.90;66.93
75164;HTU21D;63746;45.402;37.922;2023-01-10T07:30:43;-3.80;68.39
75164;HTU21D;63746;45.402;37.922;2023-01-10T07:33:09;-3.70;68.49
75164;HTU21D;63746;45.402;37.922;2023-01-10T07:35:35;-3.62;67.74
75164;HTU21D;63746;45.402;37.922;2023-01-10T07:38:01;-3.58;67.16
75164;HTU21D;63746;45.402;37.922;2023-01-10T07:40:29;-3.53;66.84
75164;HTU21D;63746;45.402;37.922;2023-01-10T07:42:59;-3.47;66.67
75164;HTU21D;63746;45.402;37.922;2023-01-10T07:45:26;-3.43;65.93
75164;HTU21D;63746;45.402;37.922;2023-01-10T07:47:59;-3.37;65.97
75164;HTU21D;63746;45.402;37.922;2023-01-10T07:50:28;-3.34;65.61
75164;HTU21D;63746;45.402;37.922;2023-01-10T07:52:54;-3.30;66.46
75164;HTU21D;63746;45.402;37.922;2023-01-10T07:55:20;-3.28;65.95
75164;HTU21D;63746;45.402;37.922;2023-01-10T07:57:48;-3.24;65.87
75164;HTU21D;63746;45.402;37.922;2023-01-10T08:00:14;-3.19;64.67
75164;HTU21D;63746;45.402;37.922;2023-01-10T08:02:40;-3.13;66.26
75164;HTU21D;63746;45.402;37.922;2023-01-10T08:05:06;-3.07;67.66
75164;HTU21D;63746;45.402;37.922;2023-01-10T08:07:32;-2.91;67.13
75164;HTU21D;63746;45.402;37.922;2023-01-10T08:09:58;-2.83;67.66
75164;HTU21D;63746;45.402;37.922;2023-01-10T08:12:24;-2.81;67.20
75164;HTU21D;63746;45.402;37.922;2023-01-10T08:14:51;-2.76;66.64
75164;HTU21D;63746;45.402;37.922;2023-01-10T08:17:18;-2.73;67.23
75164;HTU21D;63746;45.402;37.922;2023-01-10T08:19:44;-2.67;66.57
75164;HTU21D;63746;45.402;37.922;2023-01-10T08:22:11;-2.63;67.07
75164;HTU21D;63746;45.402;37.922;2023-01-10T08:24:37;-2.60;66.04
75164;HTU21D;63746;45.402;37.922;2023-01-10T08:27:03;-2.52;66.43
75164;HTU21D;63746;45.402;37.922;2023-01-10T08:29:29;-2.46;65.83
75164;HTU21D;63746;45.402;37.922;2023-01-10T08:31:55;-2.41;66.66
75164;HTU21D;63746;45.402;37.922;2023-01-10T08:34:21;-2.34;67.17
75164;HTU21D;63746;45.402;37.922;2023-01-10T08:36:51;-2.28;64.98
75164;HTU21D;63746;45.402;37.922;2023-01-10T08:39:18;-2.26;63.79
75164;HTU21D;63746;45.402;37.922;2023-01-10T08:41:46;-2.22;65.42
75164;HTU21D;63746;45.402;37.922;2023-01-10T08:44:12;-2.15;66.40
75164;HTU21D;63746;45.402;37.922;2023-01-10T08:46:40;-2.05;65.21
75164;HTU21D;63746;45.402;37.922;2023-01-10T08:49:07;-1.99;66.31
75164;HTU21D;63746;45.402;37.922;2023-01-10T09:21:57;-1.62;64.63
75164;HTU21D;63746;45.402;37.922;2023-01-10T09:24:23;-1.52;65.20
75164;HTU21D;63746;45.402;37.922;2023-01-10T09:26:49;-1.44;65.13
75164;HTU21D;63746;45.402;37.922;2023-01-10T09:29:15;-1.32;64.39
75164;HTU21D;63746;45.402;37.922;2023-01-10T09:31:41;-1.23;63.07
75164;HTU21D;63746;45.402;37.922;2023-01-10T09:34:07;-1.16;64.56
75164;HTU21D;63746;45.402;37.922;2023-01-10T09:36:33;-1.10;63.53
75164;HTU21D;63746;45.402;37.922;2023-01-10T09:38:59;-1.05;60.13
75164;HTU21D;63746;45.402;37.922;2023-01-10T09:44:04;-0.95;64.06
75164;HTU21D;63746;45.402;37.922;2023-01-10T09:49:07;-0.81;63.39
75164;HTU21D;63746;45.402;37.922;2023-01-10T09:51:43;-0.71;62.73
75164;HTU21D;63746;45.402;37.922;2023-01-10T09:56:48;-0.56;63.86
75164;HTU21D;63746;45.402;37.922;2023-01-10T09:59:19;-0.51;63.52
75164;HTU21D;63746;45.402;37.922;2023-01-10T10:01:47;-0.47;63.65
75164;HTU21D;63746;45.402;37.922;2023-01-10T10:04:41;-0.42;60.75
75164;HTU21D;63746;45.402;37.922;2023-01-10T10:07:13;-0.39;62.58
75164;HTU21D;63746;45.402;37.922;2023-01-10T10:09:39;-0.38;62.79
75164;HTU21D;63746;45.402;37.922;2023-01-10T10:12:31;-0.31;63.98
75164;HTU21D;63746;45.402;37.922;2023-01-10T10:15:17;-0.24;62.55
75164;HTU21D;63746;45.402;37.922;2023-01-10T10:25:58;-0.07;63.89
75164;HTU21D;63746;45.402;37.922;2023-01-10T10:34:09;0.14;62.53
75164;HTU21D;63746;45.402;37.922;2023-01-10T10:39:46;0.16;61.45
75164;HTU21D;63746;45.402;37.922;2023-01-10T10:42:16;0.18;63.62
75164;HTU21D;63746;45.402;37.922;2023-01-10T10:44:53;0.22;62.83
75164;HTU21D;63746;45.402;37.922;2023-01-10T10:47:22;0.29;64.01
75164;HTU21D;63746;45.402;37.922;2023-01-10T10:52:37;0.32;63.56
75164;HTU21D;63746;45.402;37.922;2023-01-10T10:55:05;0.33;63.71
75164;HTU21D;63746;45.402;37.922;2023-01-10T10:57:34;0.33;62.82
75164;HTU21D;63746;45.402;37.922;2023-01-10T11:00:04;0.32;61.65
75164;HTU21D;63746;45.402;37.922;2023-01-10T11:02:39;0.31;60.73
75164;HTU21D;63746;45.402;37.922;2023-01-10T11:05:23;0.32;61.07
75164;HTU21D;63746;45.402;37.922;2023-01-10T11:07:54;0.34;59.69
75164;HTU21D;63746;45.402;37.922;2023-01-10T11:10:23;0.35;63.86
75164;HTU21D;63746;45.402;37.922;2023-01-10T11:13:13;0.38;61.57
75164;HTU21D;63746;45.402;37.922;2023-01-10T11:15:43;0.40;60.83
75164;HTU21D;63746;45.402;37.922;2023-01-10T11:18:16;0.39;62.41
75164;HTU21D;63746;45.402;37.922;2023-01-10T11:23:50;0.38;63.40
75164;HTU21D;63746;45.402;37.922;2023-01-10T11:26:29;0.37;63.45
75164;HTU21D;63746;45.402;37.922;2023-01-10T11:29:23;0.38;61.36
75164;HTU21D;63746;45.402;37.922;2023-01-10T11:31:51;0.38;61.97
75164;HTU21D;63746;45.402;37.922;2023-01-10T11:34:24;0.38;63.09
75164;HTU21D;63746;45.402;37.922;2023-01-10T11:39:18;0.43;64.15
75164;HTU21D;63746;45.402;37.922;2023-01-10T11:41:44;0.43;63.23
75164;HTU21D;63746;45.402;37.922;2023-01-10T11:44:24;0.39;62.56
75164;HTU21D;63746;45.402;37.922;2023-01-10T11:47:11;0.37;63.24
75164;HTU21D;63746;45.402;37.922;2023-01-10T11:49:41;0.34;64.76
75164;HTU21D;63746;45.402;37.922;2023-01-10T11:52:24;0.33;65.18
75164;HTU21D;63746;45.402;37.922;2023-01-10T11:54:51;0.32;63.63
75164;HTU21D;63746;45.402;37.922;2023-01-10T11:57:24;0.29;62.37
75164;HTU21D;63746;45.402;37.922;2023-01-10T11:59:51;0.28;63.73
75164;HTU21D;63746;45.402;37.922;2023-01-10T12:02:32;0.24;63.56
75164;HTU21D;63746;45.402;37.922;2023-01-10T12:05:03;0.25;59.88
75164;HTU21D;63746;45.402;37.922;2023-01-10T12:07:54;0.24;59.58
75164;HTU21D;63746;45.402;37.922;2023-01-10T12:10:22;0.23;62.25
75164;HTU21D;63746;45.402;37.922;2023-01-10T12:12:54;0.21;60.42
75164;HTU21D;63746;45.402;37.922;2023-01-10T12:15:26;0.20;61.96
75164;HTU21D;63746;45.402;37.922;2023-01-10T12:18:04;0.18;61.68
75164;HTU21D;63746;45.402;37.922;2023-01-10T12:20:45;0.17;61.05
75164;HTU21D;63746;45.402;37.922;2023-01-10T12:23:17;0.16;60.96
75164;HTU21D;63746;45.402;37.922;2023-01-10T12:25:44;0.15;61.86
75164;HTU21D;63746;45.402;37.922;2023-01-10T12:28:20;0.10;60.89
75164;HTU21D;63746;45.402;37.922;2023-01-10T12:30:47;0.09;61.29
75164;HTU21D;63746;45.402;37.922;2023-01-10T12:33:24;0.08;64.25
75164;HTU21D;63746;45.402;37.922;2023-01-10T12:36:15;0.08;62.55
75164;HTU21D;63746;45.402;37.922;2023-01-10T12:39:06;0.06;62.02
75164;HTU21D;63746;45.402;37.922;2023-01-10T12:41:56;0.05;60.84
75164;HTU21D;63746;45.402;37.922;2023-01-10T12:44:45;0.03;61.05
75164;HTU21D;63746;45.402;37.922;2023-01-10T12:47:28;0.01;60.49
75164;HTU21D;63746;45.402;37.922;2023-01-10T12:52:44;-0.02;59.42
75164;HTU21D;63746;45.402;37.922;2023-01-10T12:55:20;-0.03;59.70
75164;HTU21D;63746;45.402;37.922;2023-01-10T12:57:49;-0.05;63.35
75164;HTU21D;63746;45.402;37.922;2023-01-10T13:00:24;-0.05;61.69
75164;HTU21D;63746;45.402;37.922;2023-01-10T13:02:54;-0.05;62.95
75164;HTU21D;63746;45.402;37.922;2023-01-10T13:05:28;-0.07;59.57
75164;HTU21D;63746;45.402;37.922;2023-01-10T13:07:59;-0.07;61.57
75164;HTU21D;63746;45.402;37.922;2023-01-10T13:10:27;-0.07;61.60
75164;HTU21D;63746;45.402;37.922;2023-01-10T13:13:05;-0.11;58.43
75164;HTU21D;63746;45.402;37.922;2023-01-10T13:15:42;-0.14;60.34
75164;HTU21D;63746;45.402;37.922;2023-01-10T13:18:28;-0.17;59.10
75164;HTU21D;63746;45.402;37.922;2023-01-10T13:21:12;-0.23;60.26
75164;HTU21D;63746;45.402;37.922;2023-01-10T13:23:49;-0.26;61.60
75164;HTU21D;63746;45.402;37.922;2023-01-10T13:26:16;-0.30;60.48
75164;HTU21D;63746;45.402;37.922;2023-01-10T13:28:56;-0.34;63.06
75164;HTU21D;63746;45.402;37.922;2023-01-10T13:34:12;-0.44;62.12
75164;HTU21D;63746;45.402;37.922;2023-01-10T13:36:42;-0.47;64.69
75164;HTU21D;63746;45.402;37.922;2023-01-10T13:52:50;-0.74;61.22
75164;HTU21D;63746;45.402;37.922;2023-01-10T13:57:54;-0.85;60.73
75164;HTU21D;63746;45.402;37.922;2023-01-10T14:03:43;-0.93;61.62
75164;HTU21D;63746;45.402;37.922;2023-01-10T14:08:58;-1.03;62.50
75164;HTU21D;63746;45.402;37.922;2023-01-10T14:16:49;-1.19;62.01
75164;HTU21D;63746;45.402;37.922;2023-01-10T14:21:51;-1.30;61.47
75164;HTU21D;63746;45.402;37.922;2023-01-10T14:27:01;-1.42;63.25
75164;HTU21D;63746;45.402;37.922;2023-01-10T14:29:31;-1.47;62.93
75164;HTU21D;63746;45.402;37.922;2023-01-10T14:31:59;-1.54;64.27
75164;HTU21D;63746;45.402;37.922;2023-01-10T14:34:29;-1.58;64.98
75164;HTU21D;63746;45.402;37.922;2023-01-10T14:37:25;-1.63;63.95
75164;HTU21D;63746;45.402;37.922;2023-01-10T14:39:49;-1.70;64.34
75164;HTU21D;63746;45.402;37.922;2023-01-10T14:42:18;-1.77;64.14
75164;HTU21D;63746;45.402;37.922;2023-01-10T14:44:52;-1.84;62.37
75164;HTU21D;63746;45.402;37.922;2023-01-10T14:47:29;-1.87;63.20
75164;HTU21D;63746;45.402;37.922;2023-01-10T14:49:56;-1.94;62.50
75164;HTU21D;63746;45.402;37.922;2023-01-10T14:52:27;-1.99;62.89
75164;HTU21D;63746;45.402;37.922;2023-01-10T14:55:14;-2.04;64.34
75164;HTU21D;63746;45.402;37.922;2023-01-10T14:57:57;-2.07;64.61
75164;HTU21D;63746;45.402;37.922;2023-01-10T15:00:31;-2.10;64.51
75164;HTU21D;63746;45.402;37.922;2023-01-10T15:02:59;-2.15;64.69
75164;HTU21D;63746;45.402;37.922;2023-01-10T15:05:35;-2.18;65.31
75164;HTU21D;63746;45.402;37.922;2023-01-10T15:08:23;-2.24;63.99
75164;HTU21D;63746;45.402;37.922;2023-01-10T15:10:53;-2.30;63.88
75164;HTU21D;63746;45.402;37.922;2023-01-10T15:13:23;-2.33;63.98
75164;HTU21D;63746;45.402;37.922;2023-01-10T15:15:51;-2.36;64.66
75164;HTU21D;63746;45.402;37.922;2023-01-10T15:18:59;-2.41;63.24
75164;HTU21D;63746;45.402;37.922;2023-01-10T15:21:21;-2.43;64.71
75164;HTU21D;63746;45.402;37.922;2023-01-10T15:23:49;-2.49;64.16
75164;HTU21D;63746;45.402;37.922;2023-01-10T15:26:16;-2.51;64.49
75164;HTU21D;63746;45.402;37.922;2023-01-10T15:28:45;-2.53;65.96
75164;HTU21D;63746;45.402;37.922;2023-01-10T15:31:15;-2.56;64.91
75164;HTU21D;63746;45.402;37.922;2023-01-10T15:33:44;-2.58;66.20
75164;HTU21D;63746;45.402;37.922;2023-01-10T15:36:16;-2.60;67.02
75164;HTU21D;63746;45.402;37.922;2023-01-10T15:38:45;-2.62;66.56
75164;HTU21D;63746;45.402;37.922;2023-01-10T15:41:19;-2.62;65.95
75164;HTU21D;63746;45.402;37.922;2023-01-10T15:43:46;-2.64;64.84
75164;HTU21D;63746;45.402;37.922;2023-01-10T15:46:22;-2.66;65.69
75164;HTU21D;63746;45.402;37.922;2023-01-10T15:49:01;-2.71;65.23
75164;HTU21D;63746;45.402;37.922;2023-01-10T15:51:34;-2.73;65.34
75164;HTU21D;63746;45.402;37.922;2023-01-10T15:54:28;-2.77;64.87
75164;HTU21D;63746;45.402;37.922;2023-01-10T15:57:06;-2.81;66.00
75164;HTU21D;63746;45.402;37.922;2023-01-10T15:59:38;-2.86;65.57
75164;HTU21D;63746;45.402;37.922;2023-01-10T16:02:16;-2.89;65.89
75164;HTU21D;63746;45.402;37.922;2023-01-10T16:04:44;-2.92;65.54
75164;HTU21D;63746;45.402;37.922;2023-01-10T16:07:26;-2.94;65.33
75164;HTU21D;63746;45.402;37.922;2023-01-10T16:09:56;-2.98;65.50
75164;HTU21D;63746;45.402;37.922;2023-01-10T16:12:26;-3.00;65.34
75164;HTU21D;63746;45.402;37.922;2023-01-10T16:15:17;-3.04;65.17
75164;HTU21D;63746;45.402;37.922;2023-01-10T16:17:45;-3.05;66.43
75164;HTU21D;63746;45.402;37.922;2023-01-10T16:20:14;-3.07;65.88
75164;HTU21D;63746;45.402;37.922;2023-01-10T16:22:42;-3.10;66.36
75164;HTU21D;63746;45.402;37.922;2023-01-10T16:25:22;-3.13;65.35
75164;HTU21D;63746;45.402;37.922;2023-01-10T16:27:53;-3.17;65.91
75164;HTU21D;63746;45.402;37.922;2023-01-10T16:30:26;-3.19;65.79
75164;HTU21D;63746;45.402;37.922;2023-01-10T16:32:54;-3.23;65.21
75164;HTU21D;63746;45.402;37.922;2023-01-10T16:35:22;-3.27;65.78
75164;HTU21D;63746;45.402;37.922;2023-01-10T16:37:53;-3.30;65.85
75164;HTU21D;63746;45.402;37.922;2023-01-10T16:40:24;-3.34;65.34
75164;HTU21D;63746;45.402;37.922;2023-01-10T16:42:54;-3.39;66.10
75164;HTU21D;63746;45.402;37.922;2023-01-10T16:45:39;-3.41;65.78
75164;HTU21D;63746;45.402;37.922;2023-01-10T16:48:05;-3.45;66.45
75164;HTU21D;63746;45.402;37.922;2023-01-10T16:50:35;-3.46;66.50
75164;HTU21D;63746;45.402;37.922;2023-01-10T16:53:03;-3.49;64.87
75164;HTU21D;63746;45.402;37.922;2023-01-10T16:58:07;-3.55;66.65
75164;HTU21D;63746;45.402;37.922;2023-01-10T17:00:33;-3.58;65.83
75164;HTU21D;63746;45.402;37.922;2023-01-10T17:03:05;-3.60;66.11
75164;HTU21D;63746;45.402;37.922;2023-01-10T17:05:36;-3.61;67.41
75164;HTU21D;63746;45.402;37.922;2023-01-10T17:08:05;-3.65;65.39
75164;HTU21D;63746;45.402;37.922;2023-01-10T17:10:33;-3.66;66.24
75164;HTU21D;63746;45.402;37.922;2023-01-10T17:13:03;-3.67;67.26
75164;HTU21D;63746;45.402;37.922;2023-01-10T17:15:29;-3.70;66.40
75164;HTU21D;63746;45.402;37.922;2023-01-10T17:17:56;-3.69;66.24
75164;HTU21D;63746;45.402;37.922;2023-01-10T17:20:22;-3.72;66.69
75164;HTU21D;63746;45.402;37.922;2023-01-10T17:22:50;-3.74;66.69
75164;HTU21D;63746;45.402;37.922;2023-01-10T17:25:17;-3.75;66.41
75164;HTU21D;63746;45.402;37.922;2023-01-10T17:27:44;-3.77;66.56
75164;HTU21D;63746;45.402;37.922;2023-01-10T17:30:11;-3.78;66.67
75164;HTU21D;63746;45.402;37.922;2023-01-10T17:32:39;-3.81;67.36
75164;HTU21D;63746;45.402;37.922;2023-01-10T17:35:06;-3.83;67.22
75164;HTU21D;63746;45.402;37.922;2023-01-10T17:37:33;-3.86;66.38
75164;HTU21D;63746;45.402;37.922;2023-01-10T17:40:00;-3.89;66.53
75164;HTU21D;63746;45.402;37.922;2023-01-10T17:42:27;-3.91;66.01
75164;HTU21D;63746;45.402;37.922;2023-01-10T17:44:53;-3.93;67.04
75164;HTU21D;63746;45.402;37.922;2023-01-10T17:47:20;-3.94;66.98
75164;HTU21D;63746;45.402;37.922;2023-01-10T17:49:46;-3.96;66.49
75164;HTU21D;63746;45.402;37.922;2023-01-10T17:52:13;-3.97;67.62
75164;HTU21D;63746;45.402;37.922;2023-01-10T17:54:39;-3.98;66.75
75164;HTU21D;63746;45.402;37.922;2023-01-10T17:57:06;-4.00;67.28
75164;HTU21D;63746;45.402;37.922;2023-01-10T17:59:36;-4.02;67.44
75164;HTU21D;63746;45.402;37.922;2023-01-10T18:02:04;-4.05;67.55
75164;HTU21D;63746;45.402;37.922;2023-01-10T18:04:31;-4.05;67.49
75164;HTU21D;63746;45.402;37.922;2023-01-10T18:06:57;-4.06;67.47
75164;HTU21D;63746;45.402;37.922;2023-01-10T18:09:24;-4.07;67.39
75164;HTU21D;63746;45.402;37.922;2023-01-10T18:11:50;-4.09;66.92
75164;HTU21D;63746;45.402;37.922;2023-01-10T18:14:17;-4.11;68.11
75164;HTU21D;63746;45.402;37.922;2023-01-10T18:17:11;-4.13;67.35
75164;HTU21D;63746;45.402;37.922;2023-01-10T18:19:38;-4.13;68.35
75164;HTU21D;63746;45.402;37.922;2023-01-10T18:22:05;-4.15;68.27
75164;HTU21D;63746;45.402;37.922;2023-01-10T18:24:53;-4.17;67.40
75164;HTU21D;63746;45.402;37.922;2023-01-10T18:27:21;-4.20;67.79
75164;HTU21D;63746;45.402;37.922;2023-01-10T18:29:49;-4.21;67.51
75164;HTU21D;63746;45.402;37.922;2023-01-10T18:32:16;-4.23;67.65
75164;HTU21D;63746;45.402;37.922;2023-01-10T18:34:43;-4.24;67.95
75164;HTU21D;63746;45.402;37.922;2023-01-10T18:37:10;-4.27;67.48
75164;HTU21D;63746;45.402;37.922;2023-01-10T18:39:38;-4.29;67.80
75164;HTU21D;63746;45.402;37.922;2023-01-10T18:42:04;-4.29;68.64
75164;HTU21D;63746;45.402;37.922;2023-01-10T18:44:31;-4.29;67.90
75164;HTU21D;63746;45.402;37.922;2023-01-10T18:46:57;-4.29;67.70
75164;HTU21D;63746;45.402;37.922;2023-01-10T18:49:24;-4.30;67.45
75164;HTU21D;63746;45.402;37.922;2023-01-10T18:51:50;-4.31;68.32
75164;HTU21D;63746;45.402;37.922;2023-01-10T18:54:17;-4.36;68.17
75164;HTU21D;63746;45.402;37.922;2023-01-10T18:56:46;-4.36;68.21
75164;HTU21D;63746;45.402;37.922;2023-01-10T18:59:13;-4.35;68.04
75164;HTU21D;63746;45.402;37.922;2023-01-10T19:01:40;-4.38;68.42
75164;HTU21D;63746;45.402;37.922;2023-01-10T19:04:07;-4.41;68.58
75164;HTU21D;63746;45.402;37.922;2023-01-10T19:06:34;-4.41;68.23
75164;HTU21D;63746;45.402;37.922;2023-01-10T19:09:00;-4.43;68.54
75164;HTU21D;63746;45.402;37.922;2023-01-10T19:11:26;-4.45;67.75
75164;HTU21D;63746;45.402;37.922;2023-01-10T19:13:53;-4.50;68.20
75164;HTU21D;63746;45.402;37.922;2023-01-10T19:16:22;-4.54;68.17
75164;HTU21D;63746;45.402;37.922;2023-01-10T19:18:55;-4.56;66.65
75164;HTU21D;63746;45.402;37.922;2023-01-10T19:21:23;-4.60;68.19
75164;HTU21D;63746;45.402;37.922;2023-01-10T19:23:52;-4.63;68.08
75164;HTU21D;63746;45.402;37.922;2023-01-10T19:26:21;-4.66;67.47
75164;HTU21D;63746;45.402;37.922;2023-01-10T19:28:48;-4.67;67.37
75164;HTU21D;63746;45.402;37.922;2023-01-10T19:31:19;-4.68;68.71
75164;HTU21D;63746;45.402;37.922;2023-01-10T19:33:46;-4.70;67.96
75164;HTU21D;63746;45.402;37.922;2023-01-10T19:36:14;-4.70;68.43
75164;HTU21D;63746;45.402;37.922;2023-01-10T19:38:40;-4.70;68.58
75164;HTU21D;63746;45.402;37.922;2023-01-10T19:41:06;-4.72;67.97
75164;HTU21D;63746;45.402;37.922;2023-01-10T19:43:33;-4.73;67.23
75164;HTU21D;63746;45.402;37.922;2023-01-10T19:46:07;-4.73;68.26
75164;HTU21D;63746;45.402;37.922;2023-01-10T19:48:34;-4.73;69.18
75164;HTU21D;63746;45.402;37.922;2023-01-10T19:51:10;-4.73;68.58
75164;HTU21D;63746;45.402;37.922;2023-01-10T19:53:39;-4.75;68.16
75164;HTU21D;63746;45.402;37.922;2023-01-10T19:56:07;-4.78;68.42
75164;HTU21D;63746;45.402;37.922;2023-01-10T19:58:34;-4.78;69.01
75164;HTU21D;63746;45.402;37.922;2023-01-10T20:01:13;-4.79;68.92
75164;HTU21D;63746;45.402;37.922;2023-01-10T20:03:40;-4.81;68.77
75164;HTU21D;63746;45.402;37.922;2023-01-10T20:06:09;-4.81;68.48
75164;HTU21D;63746;45.402;37.922;2023-01-10T20:08:39;-4.82;69.42
75164;HTU21D;63746;45.402;37.922;2023-01-10T20:11:06;-4.83;68.98
75164;HTU21D;63746;45.402;37.922;2023-01-10T20:13:33;-4.84;68.93
75164;HTU21D;63746;45.402;37.922;2023-01-10T20:16:00;-4.86;68.48
75164;HTU21D;63746;45.402;37.922;2023-01-10T20:18:26;-4.87;68.86
75164;HTU21D;63746;45.402;37.922;2023-01-10T20:20:52;-4.86;68.74
75164;HTU21D;63746;45.402;37.922;2023-01-10T20:23:18;-4.88;68.89
75164;HTU21D;63746;45.402;37.922;2023-01-10T20:26:20;-4.91;68.76
75164;HTU21D;63746;45.402;37.922;2023-01-10T20:28:46;-4.91;69.36
75164;HTU21D;63746;45.402;37.922;2023-01-10T20:31:18;-4.94;68.68
75164;HTU21D;63746;45.402;37.922;2023-01-10T20:33:44;-4.95;68.94
75164;HTU21D;63746;45.402;37.922;2023-01-10T20:36:13;-4.95;69.42
75164;HTU21D;63746;45.402;37.922;2023-01-10T20:38:40;-4.96;69.47
75164;HTU21D;63746;45.402;37.922;2023-01-10T20:41:10;-4.98;69.74
75164;HTU21D;63746;45.402;37.922;2023-01-10T20:43:37;-5.00;69.44
75164;HTU21D;63746;45.402;37.922;2023-01-10T20:46:11;-5.01;68.87
75164;HTU21D;63746;45.402;37.922;2023-01-10T20:48:38;-5.02;69.07
75164;HTU21D;63746;45.402;37.922;2023-01-10T20:51:04;-5.01;69.43
75164;HTU21D;63746;45.402;37.922;2023-01-10T20:53:30;-5.02;69.62
75164;HTU21D;63746;45.402;37.922;2023-01-10T20:56:07;-5.02;69.71
75164;HTU21D;63746;45.402;37.922;2023-01-10T20:58:34;-5.04;69.43
75164;HTU21D;63746;45.402;37.922;2023-01-10T21:01:00;-5.07;68.97
75164;HTU21D;63746;45.402;37.922;2023-01-10T21:03:26;-5.08;69.38
75164;HTU21D;63746;45.402;37.922;2023-01-10T21:05:53;-5.09;69.44
75164;HTU21D;63746;45.402;37.922;2023-01-10T21:08:20;-5.09;69.68
75164;HTU21D;63746;45.402;37.922;2023-01-10T21:10:48;-5.10;69.46
75164;HTU21D;63746;45.402;37.922;2023-01-10T21:13:14;-5.13;69.52
75164;HTU21D;63746;45.402;37.922;2023-01-10T21:15:41;-5.15;69.33
75164;HTU21D;63746;45.402;37.922;2023-01-10T21:18:09;-5.14;69.65
75164;HTU21D;63746;45.402;37.922;2023-01-10T21:20:39;-5.14;69.36
75164;HTU21D;63746;45.402;37.922;2023-01-10T21:23:05;-5.15;69.62
75164;HTU21D;63746;45.402;37.922;2023-01-10T21:25:31;-5.16;69.56
75164;HTU21D;63746;45.402;37.922;2023-01-10T21:27:57;-5.16;69.44
75164;HTU21D;63746;45.402;37.922;2023-01-10T21:30:23;-5.18;69.13
75164;HTU21D;63746;45.402;37.922;2023-01-10T21:32:49;-5.20;69.78
75164;HTU21D;63746;45.402;37.922;2023-01-10T21:35:15;-5.19;69.55
75164;HTU21D;63746;45.402;37.922;2023-01-10T21:37:41;-5.20;70.06
75164;HTU21D;63746;45.402;37.922;2023-01-10T21:40:07;-5.22;69.71
75164;HTU21D;63746;45.402;37.922;2023-01-10T21:42:33;-5.23;69.99
75164;HTU21D;63746;45.402;37.922;2023-01-10T21:45:06;-5.25;69.41
75164;HTU21D;63746;45.402;37.922;2023-01-10T21:47:33;-5.26;69.59
75164;HTU21D;63746;45.402;37.922;2023-01-10T21:50:02;-5.27;69.24
75164;HTU21D;63746;45.402;37.922;2023-01-10T21:52:28;-5.31;69.08
75164;HTU21D;63746;45.402;37.922;2023-01-10T21:54:54;-5.34;69.24
75164;HTU21D;63746;45.402;37.922;2023-01-10T21:57:20;-5.35;69.66
75164;HTU21D;63746;45.402;37.922;2023-01-10T21:59:49;-5.35;69.64
75164;HTU21D;63746;45.402;37.922;2023-01-10T22:02:15;-5.34;69.59
75164;HTU21D;63746;45.402;37.922;2023-01-10T22:04:49;-5.37;69.76
75164;HTU21D;63746;45.402;37.922;2023-01-10T22:07:22;-5.37;69.20
75164;HTU21D;63746;45.402;37.922;2023-01-10T22:09:49;-5.39;68.97
75164;HTU21D;63746;45.402;37.922;2023-01-10T22:12:19;-5.38;69.84
75164;HTU21D;63746;45.402;37.922;2023-01-10T22:14:46;-5.39;69.42
75164;HTU21D;63746;45.402;37.922;2023-01-10T22:17:12;-5.41;69.82
75164;HTU21D;63746;45.402;37.922;2023-01-10T22:19:38;-5.41;69.49
75164;HTU21D;63746;45.402;37.922;2023-01-10T22:22:05;-5.42;70.09
75164;HTU21D;63746;45.402;37.922;2023-01-10T22:24:31;-5.41;69.94
75164;HTU21D;63746;45.402;37.922;2023-01-10T22:26:57;-5.42;70.29
75164;HTU21D;63746;45.402;37.922;2023-01-10T22:29:24;-5.39;70.46
75164;HTU21D;63746;45.402;37.922;2023-01-10T22:31:51;-5.41;70.10
75164;HTU21D;63746;45.402;37.922;2023-01-10T22:34:17;-5.43;69.78
75164;HTU21D;63746;45.402;37.922;2023-01-10T22:36:43;-5.44;70.20
75164;HTU21D;63746;45.402;37.922;2023-01-10T22:39:09;-5.43;70.32
75164;HTU21D;63746;45.402;37.922;2023-01-10T22:41:36;-5.43;70.16
75164;HTU21D;63746;45.402;37.922;2023-01-10T22:44:02;-5.45;69.71
75164;HTU21D;63746;45.402;37.922;2023-01-10T22:46:28;-5.45;69.87
75164;HTU21D;63746;45.402;37.922;2023-01-10T22:48:55;-5.45;69.96
75164;HTU21D;63746;45.402;37.922;2023-01-10T22:51:22;-5.45;69.87
75164;HTU21D;63746;45.402;37.922;2023-01-10T22:53:54;-5.46;70.27
75164;HTU21D;63746;45.402;37.922;2023-01-10T22:56:20;-5.46;70.10
75164;HTU21D;63746;45.402;37.922;2023-01-10T22:58:48;-5.45;70.17
75164;HTU21D;63746;45.402;37.922;2023-01-10T23:01:17;-5.48;69.65
75164;HTU21D;63746;45.402;37.922;2023-01-10T23:03:43;-5.48;69.71
75164;HTU21D;63746;45.402;37.922;2023-01-10T23:06:10;-5.49;69.96
75164;HTU21D;63746;45.402;37.922;2023-01-10T23:08:36;-5.48;70.16
75164;HTU21D;63746;45.402;37.922;2023-01-10T23:11:03;-5.48;70.28
75164;HTU21D;63746;45.402;37.922;2023-01-10T23:13:29;-5.48;70.32
75164;HTU21D;63746;45.402;37.922;2023-01-10T23:15:55;-5.48;70.05
75164;HTU21D;63746;45.402;37.922;2023-01-10T23:18:23;-5.49;70.35
75164;HTU21D;63746;45.402;37.922;2023-01-10T23:20:49;-5.49;69.86